sensor_id;sensor_type;location;lat;lon;timestamp;P1;durP1;ratioP1;P2;durP2;ratioP2
19969;SDS011;10146;47.754;9.566;2023-07-31T00:01:19;4.40;;;3.00;;
19969;SDS011;10146;47.754;9.566;2023-07-31T00:03:45;3.17;;;2.88;;
19969;SDS011;10146;47.754;9.566;2023-07-31T00:06:11;4.78;;;2.58;;
19969;SDS011;10146;47.754;9.566;2023-07-31T00:08:37;5.00;;;2.50;;
19969;SDS011;10146;47.754;9.566;2023-07-31T00:11:02;2.88;;;2.40;;
19969;SDS011;10146;47.754;9.566;2023-07-31T00:13:28;3.45;;;3.00;;
19969;SDS011;10146;47.754;9.566;2023-07-31T00:15:53;3.00;;;2.63;;
19969;SDS011;10146;47.754;9.566;2023-07-31T00:18:19;3.97;;;2.53;;
19969;SDS011;10146;47.754;9.566;2023-07-31T00:20:45;4.65;;;2.42;;
19969;SDS011;10146;47.754;9.566;2023-07-31T00:23:10;3.92;;;2.55;;
19969;SDS011;10146;47.754;9.566;2023-07-31T00:25:36;4.78;;;2.85;;
19969;SDS011;10146;47.754;9.566;2023-07-31T00:28:02;3.40;;;2.78;;
19969;SDS011;10146;47.754;9.566;2023-07-31T00:30:27;3.30;;;2.97;;
19969;SDS011;10146;47.754;9.566;2023-07-31T00:32:53;5.20;;;2.90;;
19969;SDS011;10146;47.754;9.566;2023-07-31T00:35:18;3.92;;;2.53;;
19969;SDS011;10146;47.754;9.566;2023-07-31T00:37:44;3.67;;;2.80;;
19969;SDS011;10146;47.754;9.566;2023-07-31T00:40:09;6.15;;;2.92;;
19969;SDS011;10146;47.754;9.566;2023-07-31T00:42:35;4.97;;;3.30;;
19969;SDS011;10146;47.754;9.566;2023-07-31T00:45:01;4.82;;;2.92;;
19969;SDS011;10146;47.754;9.566;2023-07-31T00:47:26;6.13;;;2.65;;
19969;SDS011;10146;47.754;9.566;2023-07-31T00:49:52;4.57;;;3.20;;
19969;SDS011;10146;47.754;9.566;2023-07-31T00:52:18;4.72;;;2.90;;
19969;SDS011;10146;47.754;9.566;2023-07-31T00:54:44;2.83;;;2.50;;
19969;SDS011;10146;47.754;9.566;2023-07-31T00:57:10;3.97;;;2.60;;
19969;SDS011;10146;47.754;9.566;2023-07-31T00:59:35;4.03;;;2.75;;
19969;SDS011;10146;47.754;9.566;2023-07-31T01:02:01;3.10;;;2.80;;
19969;SDS011;10146;47.754;9.566;2023-07-31T01:04:28;4.55;;;2.80;;
19969;SDS011;10146;47.754;9.566;2023-07-31T01:09:32;3.45;;;3.10;;
19969;SDS011;10146;47.754;9.566;2023-07-31T01:12:02;3.42;;;3.10;;
19969;SDS011;10146;47.754;9.566;2023-07-31T01:14:28;3.45;;;2.83;;
19969;SDS011;10146;47.754;9.566;2023-07-31T01:16:54;4.38;;;2.75;;
19969;SDS011;10146;47.754;9.566;2023-07-31T01:19:24;5.18;;;3.08;;
19969;SDS011;10146;47.754;9.566;2023-07-31T01:24:48;4.38;;;2.67;;
19969;SDS011;10146;47.754;9.566;2023-07-31T01:27:44;4.70;;;3.20;;
19969;SDS011;10146;47.754;9.566;2023-07-31T01:30:41;5.47;;;2.97;;
19969;SDS011;10146;47.754;9.566;2023-07-31T01:33:12;4.60;;;2.58;;
19969;SDS011;10146;47.754;9.566;2023-07-31T01:35:39;4.75;;;2.78;;
19969;SDS011;10146;47.754;9.566;2023-07-31T01:38:05;3.25;;;2.90;;
19969;SDS011;10146;47.754;9.566;2023-07-31T01:40:31;4.68;;;2.85;;
19969;SDS011;10146;47.754;9.566;2023-07-31T01:42:56;5.95;;;3.15;;
19969;SDS011;10146;47.754;9.566;2023-07-31T01:45:22;5.05;;;2.90;;
19969;SDS011;10146;47.754;9.566;2023-07-31T01:47:47;5.07;;;2.70;;
19969;SDS011;10146;47.754;9.566;2023-07-31T01:50:13;5.63;;;3.08;;
19969;SDS011;10146;47.754;9.566;2023-07-31T01:52:38;3.83;;;3.05;;
19969;SDS011;10146;47.754;9.566;2023-07-31T01:55:04;3.70;;;2.90;;
19969;SDS011;10146;47.754;9.566;2023-07-31T01:57:30;4.30;;;2.97;;
19969;SDS011;10146;47.754;9.566;2023-07-31T01:59:55;3.97;;;2.92;;
19969;SDS011;10146;47.754;9.566;2023-07-31T02:02:21;3.63;;;3.03;;
19969;SDS011;10146;47.754;9.566;2023-07-31T02:04:48;6.72;;;3.58;;
19969;SDS011;10146;47.754;9.566;2023-07-31T02:07:13;5.22;;;3.35;;
19969;SDS011;10146;47.754;9.566;2023-07-31T02:09:39;3.72;;;2.97;;
19969;SDS011;10146;47.754;9.566;2023-07-31T02:12:05;4.03;;;3.10;;
19969;SDS011;10146;47.754;9.566;2023-07-31T02:14:33;5.00;;;3.58;;
19969;SDS011;10146;47.754;9.566;2023-07-31T02:16:59;4.57;;;2.88;;
19969;SDS011;10146;47.754;9.566;2023-07-31T02:19:24;4.47;;;2.88;;
19969;SDS011;10146;47.754;9.566;2023-07-31T02:21:50;5.53;;;3.33;;
19969;SDS011;10146;47.754;9.566;2023-07-31T02:24:16;4.18;;;2.88;;
19969;SDS011;10146;47.754;9.566;2023-07-31T02:26:41;4.97;;;3.10;;
19969;SDS011;10146;47.754;9.566;2023-07-31T02:29:07;3.78;;;3.47;;
19969;SDS011;10146;47.754;9.566;2023-07-31T02:31:33;4.40;;;3.50;;
19969;SDS011;10146;47.754;9.566;2023-07-31T02:33:59;4.78;;;3.50;;
19969;SDS011;10146;47.754;9.566;2023-07-31T02:36:24;4.93;;;3.53;;
19969;SDS011;10146;47.754;9.566;2023-07-31T02:38:50;3.65;;;3.13;;
19969;SDS011;10146;47.754;9.566;2023-07-31T02:41:15;5.85;;;3.85;;
19969;SDS011;10146;47.754;9.566;2023-07-31T02:43:41;6.60;;;3.30;;
19969;SDS011;10146;47.754;9.566;2023-07-31T02:46:07;4.97;;;3.67;;
19969;SDS011;10146;47.754;9.566;2023-07-31T02:48:33;3.72;;;2.83;;
19969;SDS011;10146;47.754;9.566;2023-07-31T02:50:58;4.97;;;3.25;;
19969;SDS011;10146;47.754;9.566;2023-07-31T02:53:24;4.78;;;3.40;;
19969;SDS011;10146;47.754;9.566;2023-07-31T02:55:49;4.63;;;3.13;;
19969;SDS011;10146;47.754;9.566;2023-07-31T02:58:15;8.45;;;3.03;;
19969;SDS011;10146;47.754;9.566;2023-07-31T03:00:43;5.00;;;2.80;;
19969;SDS011;10146;47.754;9.566;2023-07-31T03:03:09;3.30;;;3.00;;
19969;SDS011;10146;47.754;9.566;2023-07-31T03:05:35;4.55;;;2.95;;
19969;SDS011;10146;47.754;9.566;2023-07-31T03:08:01;4.05;;;3.33;;
19969;SDS011;10146;47.754;9.566;2023-07-31T03:10:26;6.50;;;3.42;;
19969;SDS011;10146;47.754;9.566;2023-07-31T03:12:52;5.80;;;3.33;;
19969;SDS011;10146;47.754;9.566;2023-07-31T03:15:18;16.30;;;4.20;;
19969;SDS011;10146;47.754;9.566;2023-07-31T03:17:43;5.03;;;3.20;;
19969;SDS011;10146;47.754;9.566;2023-07-31T03:20:09;3.47;;;2.95;;
19969;SDS011;10146;47.754;9.566;2023-07-31T03:22:35;5.07;;;3.05;;
19969;SDS011;10146;47.754;9.566;2023-07-31T03:25:01;5.75;;;2.97;;
19969;SDS011;10146;47.754;9.566;2023-07-31T03:27:27;3.83;;;2.58;;
19969;SDS011;10146;47.754;9.566;2023-07-31T03:29:53;8.10;;;3.25;;
19969;SDS011;10146;47.754;9.566;2023-07-31T03:32:18;4.65;;;3.28;;
19969;SDS011;10146;47.754;9.566;2023-07-31T03:34:44;8.27;;;3.05;;
19969;SDS011;10146;47.754;9.566;2023-07-31T03:37:10;5.53;;;3.17;;
19969;SDS011;10146;47.754;9.566;2023-07-31T03:39:35;5.05;;;3.20;;
19969;SDS011;10146;47.754;9.566;2023-07-31T03:42:01;5.25;;;2.97;;
19969;SDS011;10146;47.754;9.566;2023-07-31T03:44:26;5.43;;;3.03;;
19969;SDS011;10146;47.754;9.566;2023-07-31T03:46:52;4.35;;;3.38;;
19969;SDS011;10146;47.754;9.566;2023-07-31T03:49:18;3.55;;;2.90;;
19969;SDS011;10146;47.754;9.566;2023-07-31T03:51:43;4.32;;;3.05;;
19969;SDS011;10146;47.754;9.566;2023-07-31T03:54:09;3.67;;;2.75;;
19969;SDS011;10146;47.754;9.566;2023-07-31T03:56:35;3.72;;;2.80;;
19969;SDS011;10146;47.754;9.566;2023-07-31T03:59:01;3.95;;;3.25;;
19969;SDS011;10146;47.754;9.566;2023-07-31T04:01:26;5.65;;;3.08;;
19969;SDS011;10146;47.754;9.566;2023-07-31T04:03:52;4.13;;;3.20;;
19969;SDS011;10146;47.754;9.566;2023-07-31T04:06:17;4.00;;;3.00;;
19969;SDS011;10146;47.754;9.566;2023-07-31T04:08:43;5.93;;;3.30;;
19969;SDS011;10146;47.754;9.566;2023-07-31T04:11:10;3.47;;;3.17;;
19969;SDS011;10146;47.754;9.566;2023-07-31T04:13:36;3.47;;;3.05;;
19969;SDS011;10146;47.754;9.566;2023-07-31T04:16:02;5.57;;;3.42;;
19969;SDS011;10146;47.754;9.566;2023-07-31T04:18:28;2.58;;;2.38;;
19969;SDS011;10146;47.754;9.566;2023-07-31T04:20:55;4.63;;;2.92;;
19969;SDS011;10146;47.754;9.566;2023-07-31T04:23:21;4.57;;;3.28;;
19969;SDS011;10146;47.754;9.566;2023-07-31T04:25:47;3.95;;;3.30;;
19969;SDS011;10146;47.754;9.566;2023-07-31T04:28:13;3.60;;;3.30;;
19969;SDS011;10146;47.754;9.566;2023-07-31T04:30:38;5.40;;;2.92;;
19969;SDS011;10146;47.754;9.566;2023-07-31T04:33:04;3.58;;;2.90;;
19969;SDS011;10146;47.754;9.566;2023-07-31T04:35:30;3.83;;;3.17;;
19969;SDS011;10146;47.754;9.566;2023-07-31T04:37:55;3.40;;;2.92;;
19969;SDS011;10146;47.754;9.566;2023-07-31T04:40:21;3.45;;;3.13;;
19969;SDS011;10146;47.754;9.566;2023-07-31T04:42:46;4.03;;;3.03;;
19969;SDS011;10146;47.754;9.566;2023-07-31T04:45:12;3.92;;;3.10;;
19969;SDS011;10146;47.754;9.566;2023-07-31T04:47:39;3.55;;;3.22;;
19969;SDS011;10146;47.754;9.566;2023-07-31T04:50:05;5.95;;;3.40;;
19969;SDS011;10146;47.754;9.566;2023-07-31T04:52:31;4.80;;;2.78;;
19969;SDS011;10146;47.754;9.566;2023-07-31T04:54:57;4.85;;;3.22;;
19969;SDS011;10146;47.754;9.566;2023-07-31T04:57:22;5.38;;;2.90;;
19969;SDS011;10146;47.754;9.566;2023-07-31T04:59:48;3.78;;;2.70;;
19969;SDS011;10146;47.754;9.566;2023-07-31T05:02:13;3.67;;;2.95;;
19969;SDS011;10146;47.754;9.566;2023-07-31T05:04:39;5.53;;;3.03;;
19969;SDS011;10146;47.754;9.566;2023-07-31T05:07:04;5.55;;;2.95;;
19969;SDS011;10146;47.754;9.566;2023-07-31T05:09:30;3.63;;;2.75;;
19969;SDS011;10146;47.754;9.566;2023-07-31T05:11:56;5.18;;;2.80;;
19969;SDS011;10146;47.754;9.566;2023-07-31T05:14:22;6.53;;;2.65;;
19969;SDS011;10146;47.754;9.566;2023-07-31T05:16:48;4.05;;;2.53;;
19969;SDS011;10146;47.754;9.566;2023-07-31T05:19:14;5.22;;;2.83;;
19969;SDS011;10146;47.754;9.566;2023-07-31T05:21:39;4.40;;;2.50;;
19969;SDS011;10146;47.754;9.566;2023-07-31T05:24:05;4.00;;;2.90;;
19969;SDS011;10146;47.754;9.566;2023-07-31T05:26:31;5.00;;;2.80;;
19969;SDS011;10146;47.754;9.566;2023-07-31T05:28:56;5.55;;;2.58;;
19969;SDS011;10146;47.754;9.566;2023-07-31T05:31:23;4.15;;;2.53;;
19969;SDS011;10146;47.754;9.566;2023-07-31T05:33:49;3.55;;;2.33;;
19969;SDS011;10146;47.754;9.566;2023-07-31T05:36:15;2.95;;;2.35;;
19969;SDS011;10146;47.754;9.566;2023-07-31T05:38:41;4.70;;;2.42;;
19969;SDS011;10146;47.754;9.566;2023-07-31T05:41:09;5.03;;;2.55;;
19969;SDS011;10146;47.754;9.566;2023-07-31T05:43:35;4.40;;;2.35;;
19969;SDS011;10146;47.754;9.566;2023-07-31T05:46:00;3.60;;;2.00;;
19969;SDS011;10146;47.754;9.566;2023-07-31T05:48:26;4.15;;;2.40;;
19969;SDS011;10146;47.754;9.566;2023-07-31T05:50:52;3.95;;;2.53;;
19969;SDS011;10146;47.754;9.566;2023-07-31T05:53:17;5.32;;;2.50;;
19969;SDS011;10146;47.754;9.566;2023-07-31T05:55:43;3.08;;;2.10;;
19969;SDS011;10146;47.754;9.566;2023-07-31T05:58:09;3.40;;;2.13;;
19969;SDS011;10146;47.754;9.566;2023-07-31T06:00:34;5.30;;;2.30;;
19969;SDS011;10146;47.754;9.566;2023-07-31T06:03:00;3.30;;;2.28;;
19969;SDS011;10146;47.754;9.566;2023-07-31T06:05:26;3.35;;;2.40;;
19969;SDS011;10146;47.754;9.566;2023-07-31T06:07:53;4.82;;;2.28;;
19969;SDS011;10146;47.754;9.566;2023-07-31T06:10:19;4.13;;;2.70;;
19969;SDS011;10146;47.754;9.566;2023-07-31T06:12:44;3.97;;;2.38;;
19969;SDS011;10146;47.754;9.566;2023-07-31T06:15:10;5.63;;;2.42;;
19969;SDS011;10146;47.754;9.566;2023-07-31T06:17:36;3.67;;;2.22;;
19969;SDS011;10146;47.754;9.566;2023-07-31T06:20:01;3.50;;;2.55;;
19969;SDS011;10146;47.754;9.566;2023-07-31T06:22:30;3.30;;;2.30;;
19969;SDS011;10146;47.754;9.566;2023-07-31T06:24:55;3.17;;;2.33;;
19969;SDS011;10146;47.754;9.566;2023-07-31T06:27:21;3.35;;;2.45;;
19969;SDS011;10146;47.754;9.566;2023-07-31T06:29:47;5.30;;;2.50;;
19969;SDS011;10146;47.754;9.566;2023-07-31T06:32:13;4.50;;;2.72;;
19969;SDS011;10146;47.754;9.566;2023-07-31T06:34:38;3.88;;;2.70;;
19969;SDS011;10146;47.754;9.566;2023-07-31T06:37:04;4.28;;;2.75;;
19969;SDS011;10146;47.754;9.566;2023-07-31T06:39:30;5.10;;;2.70;;
19969;SDS011;10146;47.754;9.566;2023-07-31T06:41:56;4.18;;;2.75;;
19969;SDS011;10146;47.754;9.566;2023-07-31T06:44:21;4.85;;;2.70;;
19969;SDS011;10146;47.754;9.566;2023-07-31T06:46:47;5.60;;;2.38;;
19969;SDS011;10146;47.754;9.566;2023-07-31T06:49:12;5.80;;;2.65;;
19969;SDS011;10146;47.754;9.566;2023-07-31T06:51:40;3.78;;;2.40;;
19969;SDS011;10146;47.754;9.566;2023-07-31T06:54:06;3.53;;;2.35;;
19969;SDS011;10146;47.754;9.566;2023-07-31T06:56:33;2.72;;;2.22;;
19969;SDS011;10146;47.754;9.566;2023-07-31T06:58:58;5.30;;;3.00;;
19969;SDS011;10146;47.754;9.566;2023-07-31T07:01:24;4.97;;;2.80;;
19969;SDS011;10146;47.754;9.566;2023-07-31T07:03:50;3.05;;;2.13;;
19969;SDS011;10146;47.754;9.566;2023-07-31T07:06:18;4.97;;;2.38;;
19969;SDS011;10146;47.754;9.566;2023-07-31T07:08:44;4.18;;;2.00;;
19969;SDS011;10146;47.754;9.566;2023-07-31T07:11:09;3.38;;;2.33;;
19969;SDS011;10146;47.754;9.566;2023-07-31T07:13:35;5.28;;;2.05;;
19969;SDS011;10146;47.754;9.566;2023-07-31T07:16:00;4.68;;;2.15;;
19969;SDS011;10146;47.754;9.566;2023-07-31T07:18:26;4.32;;;2.20;;
19969;SDS011;10146;47.754;9.566;2023-07-31T07:20:52;2.42;;;2.00;;
19969;SDS011;10146;47.754;9.566;2023-07-31T07:23:19;4.18;;;1.95;;
19969;SDS011;10146;47.754;9.566;2023-07-31T07:25:45;3.85;;;1.80;;
19969;SDS011;10146;47.754;9.566;2023-07-31T07:28:11;3.78;;;1.90;;
19969;SDS011;10146;47.754;9.566;2023-07-31T07:30:37;5.82;;;2.30;;
19969;SDS011;10146;47.754;9.566;2023-07-31T07:33:03;4.28;;;1.98;;
19969;SDS011;10146;47.754;9.566;2023-07-31T07:35:29;2.90;;;1.90;;
19969;SDS011;10146;47.754;9.566;2023-07-31T07:37:54;3.50;;;1.80;;
19969;SDS011;10146;47.754;9.566;2023-07-31T07:40:20;6.95;;;1.80;;
19969;SDS011;10146;47.754;9.566;2023-07-31T07:42:46;5.55;;;2.10;;
19969;SDS011;10146;47.754;9.566;2023-07-31T07:45:12;8.02;;;2.17;;
19969;SDS011;10146;47.754;9.566;2023-07-31T07:47:38;4.70;;;2.17;;
19969;SDS011;10146;47.754;9.566;2023-07-31T07:50:07;5.38;;;1.85;;
19969;SDS011;10146;47.754;9.566;2023-07-31T07:52:33;2.55;;;1.70;;
19969;SDS011;10146;47.754;9.566;2023-07-31T07:54:59;3.75;;;1.73;;
19969;SDS011;10146;47.754;9.566;2023-07-31T07:57:25;3.90;;;1.85;;
19969;SDS011;10146;47.754;9.566;2023-07-31T07:59:51;3.45;;;1.75;;
19969;SDS011;10146;47.754;9.566;2023-07-31T08:02:16;4.80;;;2.08;;
19969;SDS011;10146;47.754;9.566;2023-07-31T08:04:42;3.53;;;1.95;;
19969;SDS011;10146;47.754;9.566;2023-07-31T08:07:07;3.65;;;1.80;;
19969;SDS011;10146;47.754;9.566;2023-07-31T08:09:35;6.32;;;2.03;;
19969;SDS011;10146;47.754;9.566;2023-07-31T08:12:01;5.07;;;2.10;;
19969;SDS011;10146;47.754;9.566;2023-07-31T08:14:28;4.35;;;2.08;;
19969;SDS011;10146;47.754;9.566;2023-07-31T08:16:53;6.75;;;1.90;;
19969;SDS011;10146;47.754;9.566;2023-07-31T08:19:19;2.97;;;1.70;;
19969;SDS011;10146;47.754;9.566;2023-07-31T08:21:45;4.25;;;1.80;;
19969;SDS011;10146;47.754;9.566;2023-07-31T08:24:10;4.28;;;1.90;;
19969;SDS011;10146;47.754;9.566;2023-07-31T08:26:36;3.72;;;1.85;;
19969;SDS011;10146;47.754;9.566;2023-07-31T08:29:02;4.28;;;1.77;;
19969;SDS011;10146;47.754;9.566;2023-07-31T08:31:28;4.57;;;2.20;;
19969;SDS011;10146;47.754;9.566;2023-07-31T08:33:54;5.22;;;1.80;;
19969;SDS011;10146;47.754;9.566;2023-07-31T08:36:20;2.38;;;1.95;;
19969;SDS011;10146;47.754;9.566;2023-07-31T08:38:46;2.97;;;1.90;;
19969;SDS011;10146;47.754;9.566;2023-07-31T08:41:11;4.57;;;1.90;;
19969;SDS011;10146;47.754;9.566;2023-07-31T08:43:38;5.72;;;1.80;;
19969;SDS011;10146;47.754;9.566;2023-07-31T08:46:04;3.58;;;1.95;;
19969;SDS011;10146;47.754;9.566;2023-07-31T08:48:31;4.70;;;1.90;;
19969;SDS011;10146;47.754;9.566;2023-07-31T08:50:57;4.88;;;1.95;;
19969;SDS011;10146;47.754;9.566;2023-07-31T08:53:23;5.20;;;2.05;;
19969;SDS011;10146;47.754;9.566;2023-07-31T08:55:49;3.83;;;1.73;;
19969;SDS011;10146;47.754;9.566;2023-07-31T08:58:15;4.03;;;1.95;;
19969;SDS011;10146;47.754;9.566;2023-07-31T09:00:42;5.68;;;2.05;;
19969;SDS011;10146;47.754;9.566;2023-07-31T09:03:13;3.78;;;1.60;;
19969;SDS011;10146;47.754;9.566;2023-07-31T09:05:42;5.63;;;1.70;;
19969;SDS011;10146;47.754;9.566;2023-07-31T09:08:09;3.92;;;1.75;;
19969;SDS011;10146;47.754;9.566;2023-07-31T09:10:45;4.38;;;2.05;;
19969;SDS011;10146;47.754;9.566;2023-07-31T09:13:12;4.72;;;2.42;;
19969;SDS011;10146;47.754;9.566;2023-07-31T09:15:42;3.08;;;1.63;;
19969;SDS011;10146;47.754;9.566;2023-07-31T09:18:09;3.42;;;2.00;;
19969;SDS011;10146;47.754;9.566;2023-07-31T09:20:35;2.75;;;1.60;;
19969;SDS011;10146;47.754;9.566;2023-07-31T09:25:38;2.42;;;1.75;;
19969;SDS011;10146;47.754;9.566;2023-07-31T09:28:08;3.80;;;2.20;;
19969;SDS011;10146;47.754;9.566;2023-07-31T09:30:49;5.13;;;2.20;;
19969;SDS011;10146;47.754;9.566;2023-07-31T09:33:16;7.10;;;2.40;;
19969;SDS011;10146;47.754;9.566;2023-07-31T09:35:42;3.53;;;1.70;;
19969;SDS011;10146;47.754;9.566;2023-07-31T09:38:09;4.43;;;1.83;;
19969;SDS011;10146;47.754;9.566;2023-07-31T09:40:38;4.32;;;1.98;;
19969;SDS011;10146;47.754;9.566;2023-07-31T09:43:05;3.17;;;1.55;;
19969;SDS011;10146;47.754;9.566;2023-07-31T09:45:36;4.47;;;1.80;;
19969;SDS011;10146;47.754;9.566;2023-07-31T09:48:03;4.05;;;1.52;;
19969;SDS011;10146;47.754;9.566;2023-07-31T09:50:40;3.53;;;1.80;;
19969;SDS011;10146;47.754;9.566;2023-07-31T09:53:08;3.17;;;1.83;;
19969;SDS011;10146;47.754;9.566;2023-07-31T09:55:34;3.40;;;1.63;;
19969;SDS011;10146;47.754;9.566;2023-07-31T09:58:04;3.78;;;2.00;;
19969;SDS011;10146;47.754;9.566;2023-07-31T10:00:31;6.55;;;3.20;;
19969;SDS011;10146;47.754;9.566;2023-07-31T10:03:01;5.70;;;2.28;;
19969;SDS011;10146;47.754;9.566;2023-07-31T10:05:36;2.92;;;2.10;;
19969;SDS011;10146;47.754;9.566;2023-07-31T10:08:07;5.13;;;2.40;;
19969;SDS011;10146;47.754;9.566;2023-07-31T10:10:37;5.43;;;2.70;;
19969;SDS011;10146;47.754;9.566;2023-07-31T10:13:07;3.70;;;1.90;;
19969;SDS011;10146;47.754;9.566;2023-07-31T10:15:34;3.58;;;1.90;;
19969;SDS011;10146;47.754;9.566;2023-07-31T10:18:01;3.45;;;2.17;;
19969;SDS011;10146;47.754;9.566;2023-07-31T10:20:27;3.10;;;1.67;;
19969;SDS011;10146;47.754;9.566;2023-07-31T10:22:54;2.30;;;1.73;;
19969;SDS011;10146;47.754;9.566;2023-07-31T10:25:21;3.55;;;1.90;;
19969;SDS011;10146;47.754;9.566;2023-07-31T10:27:47;4.10;;;2.13;;
19969;SDS011;10146;47.754;9.566;2023-07-31T10:30:17;3.90;;;2.08;;
19969;SDS011;10146;47.754;9.566;2023-07-31T10:32:45;2.95;;;1.83;;
19969;SDS011;10146;47.754;9.566;2023-07-31T10:35:13;4.38;;;2.03;;
19969;SDS011;10146;47.754;9.566;2023-07-31T10:37:41;1.85;;;1.50;;
19969;SDS011;10146;47.754;9.566;2023-07-31T10:40:27;2.85;;;1.90;;
19969;SDS011;10146;47.754;9.566;2023-07-31T10:42:53;3.58;;;1.88;;
19969;SDS011;10146;47.754;9.566;2023-07-31T10:48:06;4.68;;;2.10;;
19969;SDS011;10146;47.754;9.566;2023-07-31T10:50:49;4.55;;;1.98;;
19969;SDS011;10146;47.754;9.566;2023-07-31T10:53:26;4.43;;;2.22;;
19969;SDS011;10146;47.754;9.566;2023-07-31T10:55:56;5.00;;;1.98;;
19969;SDS011;10146;47.754;9.566;2023-07-31T10:58:26;2.22;;;1.80;;
19969;SDS011;10146;47.754;9.566;2023-07-31T11:00:55;4.88;;;1.90;;
19969;SDS011;10146;47.754;9.566;2023-07-31T11:03:24;2.63;;;1.85;;
19969;SDS011;10146;47.754;9.566;2023-07-31T11:05:52;2.53;;;1.60;;
19969;SDS011;10146;47.754;9.566;2023-07-31T11:08:41;4.15;;;2.10;;
19969;SDS011;10146;47.754;9.566;2023-07-31T11:11:09;2.38;;;1.75;;
19969;SDS011;10146;47.754;9.566;2023-07-31T11:16:11;4.28;;;1.90;;
19969;SDS011;10146;47.754;9.566;2023-07-31T11:18:38;4.45;;;2.03;;
19969;SDS011;10146;47.754;9.566;2023-07-31T11:21:06;2.58;;;1.70;;
19969;SDS011;10146;47.754;9.566;2023-07-31T11:23:32;4.78;;;1.83;;
19969;SDS011;10146;47.754;9.566;2023-07-31T11:26:01;3.33;;;1.95;;
19969;SDS011;10146;47.754;9.566;2023-07-31T11:28:30;4.18;;;1.63;;
19969;SDS011;10146;47.754;9.566;2023-07-31T11:31:00;2.90;;;2.10;;
19969;SDS011;10146;47.754;9.566;2023-07-31T11:33:27;4.07;;;2.00;;
19969;SDS011;10146;47.754;9.566;2023-07-31T11:35:53;6.07;;;1.70;;
19969;SDS011;10146;47.754;9.566;2023-07-31T11:38:28;4.20;;;2.17;;
19969;SDS011;10146;47.754;9.566;2023-07-31T11:41:02;2.80;;;1.80;;
19969;SDS011;10146;47.754;9.566;2023-07-31T11:43:29;3.25;;;1.80;;
19969;SDS011;10146;47.754;9.566;2023-07-31T11:45:57;4.55;;;1.95;;
19969;SDS011;10146;47.754;9.566;2023-07-31T11:50:49;2.17;;;1.70;;
19969;SDS011;10146;47.754;9.566;2023-07-31T11:53:17;3.83;;;1.70;;
19969;SDS011;10146;47.754;9.566;2023-07-31T11:55:47;3.35;;;1.98;;
19969;SDS011;10146;47.754;9.566;2023-07-31T11:58:13;3.42;;;1.85;;
19969;SDS011;10146;47.754;9.566;2023-07-31T12:00:40;3.08;;;1.98;;
19969;SDS011;10146;47.754;9.566;2023-07-31T12:03:06;3.72;;;2.00;;
19969;SDS011;10146;47.754;9.566;2023-07-31T12:05:32;2.60;;;1.80;;
19969;SDS011;10146;47.754;9.566;2023-07-31T12:07:58;4.75;;;2.30;;
19969;SDS011;10146;47.754;9.566;2023-07-31T12:12:57;3.45;;;1.98;;
19969;SDS011;10146;47.754;9.566;2023-07-31T12:15:32;3.53;;;2.00;;
19969;SDS011;10146;47.754;9.566;2023-07-31T12:17:59;4.32;;;1.80;;
19969;SDS011;10146;47.754;9.566;2023-07-31T12:20:25;3.15;;;2.08;;
19969;SDS011;10146;47.754;9.566;2023-07-31T12:22:51;3.08;;;1.90;;
19969;SDS011;10146;47.754;9.566;2023-07-31T12:25:16;3.25;;;2.00;;
19969;SDS011;10146;47.754;9.566;2023-07-31T12:27:45;4.40;;;1.90;;
19969;SDS011;10146;47.754;9.566;2023-07-31T12:30:27;4.93;;;1.70;;
19969;SDS011;10146;47.754;9.566;2023-07-31T12:33:05;3.70;;;1.60;;
19969;SDS011;10146;47.754;9.566;2023-07-31T12:35:35;3.00;;;1.85;;
19969;SDS011;10146;47.754;9.566;2023-07-31T12:38:02;3.38;;;2.08;;
19969;SDS011;10146;47.754;9.566;2023-07-31T12:40:27;3.72;;;1.80;;
19969;SDS011;10146;47.754;9.566;2023-07-31T12:42:53;2.60;;;1.83;;
19969;SDS011;10146;47.754;9.566;2023-07-31T12:45:19;2.92;;;1.95;;
19969;SDS011;10146;47.754;9.566;2023-07-31T12:47:46;3.25;;;1.60;;
19969;SDS011;10146;47.754;9.566;2023-07-31T12:50:11;2.95;;;1.80;;
19969;SDS011;10146;47.754;9.566;2023-07-31T12:52:37;3.13;;;1.75;;
19969;SDS011;10146;47.754;9.566;2023-07-31T12:55:03;3.63;;;1.73;;
19969;SDS011;10146;47.754;9.566;2023-07-31T12:57:29;2.20;;;1.63;;
19969;SDS011;10146;47.754;9.566;2023-07-31T12:59:55;2.35;;;1.52;;
19969;SDS011;10146;47.754;9.566;2023-07-31T13:02:21;3.50;;;2.03;;
19969;SDS011;10146;47.754;9.566;2023-07-31T13:04:47;3.45;;;1.98;;
19969;SDS011;10146;47.754;9.566;2023-07-31T13:07:14;1.85;;;1.65;;
19969;SDS011;10146;47.754;9.566;2023-07-31T13:09:40;3.45;;;2.00;;
19969;SDS011;10146;47.754;9.566;2023-07-31T13:12:06;2.90;;;1.75;;
19969;SDS011;10146;47.754;9.566;2023-07-31T13:14:32;3.05;;;1.75;;
19969;SDS011;10146;47.754;9.566;2023-07-31T13:16:57;3.75;;;1.70;;
19969;SDS011;10146;47.754;9.566;2023-07-31T13:19:23;2.95;;;2.00;;
19969;SDS011;10146;47.754;9.566;2023-07-31T13:21:49;2.95;;;1.65;;
19969;SDS011;10146;47.754;9.566;2023-07-31T13:24:14;2.47;;;1.80;;
19969;SDS011;10146;47.754;9.566;2023-07-31T13:26:40;3.78;;;1.90;;
19969;SDS011;10146;47.754;9.566;2023-07-31T13:29:05;3.22;;;1.83;;
19969;SDS011;10146;47.754;9.566;2023-07-31T13:31:31;3.53;;;1.67;;
19969;SDS011;10146;47.754;9.566;2023-07-31T13:33:56;3.50;;;1.83;;
19969;SDS011;10146;47.754;9.566;2023-07-31T13:36:22;2.80;;;1.58;;
19969;SDS011;10146;47.754;9.566;2023-07-31T13:38:48;3.17;;;1.70;;
19969;SDS011;10146;47.754;9.566;2023-07-31T13:41:13;2.35;;;1.70;;
19969;SDS011;10146;47.754;9.566;2023-07-31T13:43:39;2.78;;;1.80;;
19969;SDS011;10146;47.754;9.566;2023-07-31T13:46:06;3.85;;;1.90;;
19969;SDS011;10146;47.754;9.566;2023-07-31T13:48:35;2.90;;;1.63;;
19969;SDS011;10146;47.754;9.566;2023-07-31T13:51:01;2.35;;;1.75;;
19969;SDS011;10146;47.754;9.566;2023-07-31T13:53:27;3.13;;;1.73;;
19969;SDS011;10146;47.754;9.566;2023-07-31T13:55:52;4.82;;;2.38;;
19969;SDS011;10146;47.754;9.566;2023-07-31T13:58:18;2.53;;;1.85;;
19969;SDS011;10146;47.754;9.566;2023-07-31T14:00:44;2.58;;;2.03;;
19969;SDS011;10146;47.754;9.566;2023-07-31T14:03:09;1.80;;;1.65;;
19969;SDS011;10146;47.754;9.566;2023-07-31T14:05:35;1.75;;;1.50;;
19969;SDS011;10146;47.754;9.566;2023-07-31T14:08:00;3.00;;;1.77;;
19969;SDS011;10146;47.754;9.566;2023-07-31T14:10:26;2.92;;;1.60;;
19969;SDS011;10146;47.754;9.566;2023-07-31T14:12:52;2.78;;;1.90;;
19969;SDS011;10146;47.754;9.566;2023-07-31T14:15:17;2.85;;;1.90;;
19969;SDS011;10146;47.754;9.566;2023-07-31T14:17:43;2.45;;;1.63;;
19969;SDS011;10146;47.754;9.566;2023-07-31T14:20:09;2.50;;;1.83;;
19969;SDS011;10146;47.754;9.566;2023-07-31T14:22:35;3.33;;;1.85;;
19969;SDS011;10146;47.754;9.566;2023-07-31T14:25:00;4.50;;;2.20;;
19969;SDS011;10146;47.754;9.566;2023-07-31T14:27:26;4.60;;;2.13;;
19969;SDS011;10146;47.754;9.566;2023-07-31T14:29:52;3.22;;;1.88;;
19969;SDS011;10146;47.754;9.566;2023-07-31T14:32:18;1.90;;;1.80;;
19969;SDS011;10146;47.754;9.566;2023-07-31T14:34:43;2.88;;;2.13;;
19969;SDS011;10146;47.754;9.566;2023-07-31T14:37:09;2.33;;;2.10;;
19969;SDS011;10146;47.754;9.566;2023-07-31T14:39:34;3.28;;;2.10;;
19969;SDS011;10146;47.754;9.566;2023-07-31T14:42:00;2.00;;;1.67;;
19969;SDS011;10146;47.754;9.566;2023-07-31T14:44:25;2.53;;;2.00;;
19969;SDS011;10146;47.754;9.566;2023-07-31T14:46:51;3.38;;;2.30;;
19969;SDS011;10146;47.754;9.566;2023-07-31T14:49:17;3.08;;;2.00;;
19969;SDS011;10146;47.754;9.566;2023-07-31T14:51:42;2.78;;;2.00;;
19969;SDS011;10146;47.754;9.566;2023-07-31T14:54:08;3.72;;;2.53;;
19969;SDS011;10146;47.754;9.566;2023-07-31T14:56:33;5.15;;;2.17;;
19969;SDS011;10146;47.754;9.566;2023-07-31T14:58:59;3.00;;;2.17;;
19969;SDS011;10146;47.754;9.566;2023-07-31T15:01:25;4.13;;;2.58;;
19969;SDS011;10146;47.754;9.566;2023-07-31T15:03:50;3.90;;;2.40;;